createdAt,value
2023-03-02T00:04:38.815Z,0.1
2023-03-02T00:14:41.188Z,-0.1
2023-03-02T00:34:45.880Z,-0.8
2023-03-02T00:44:47.808Z,-1.1
2023-03-02T00:54:49.616Z,-1.4
2023-03-02T01:14:53.595Z,-0.6
2023-03-02T01:24:56.107Z,-0.5
2023-03-02T01:34:58.270Z,-0.4
2023-03-02T01:45:00.266Z,-0.5
2023-03-02T01:55:02.147Z,-0.4
2023-03-02T02:05:04.692Z,-0.3
2023-03-02T02:15:06.976Z,-0.1
2023-03-02T02:25:08.842Z,0
2023-03-02T02:35:10.593Z,0
2023-03-02T02:45:13.046Z,0
2023-03-02T02:55:15.202Z,-0.1
2023-03-02T03:05:17.629Z,-0.2
2023-03-02T03:15:19.365Z,-0.4
2023-03-02T03:25:21.360Z,-0.7
2023-03-02T03:35:24.011Z,-0.9
2023-03-02T03:45:25.734Z,-1.2
2023-03-02T04:05:31.630Z,-1
2023-03-02T04:15:32.505Z,-0.9
2023-03-02T04:25:35.095Z,-0.9
2023-03-02T04:35:37.252Z,-1
2023-03-02T04:45:39.250Z,-0.9
2023-03-02T04:55:41.445Z,-0.9
2023-03-02T05:05:44.047Z,-1
2023-03-02T05:07:11.460Z,-1
2023-03-02T05:15:54.503Z,-1.1
2023-03-02T05:25:56.813Z,-1
2023-03-02T05:46:00.910Z,-1.2
2023-03-02T05:56:02.889Z,-1.4
2023-03-02T06:06:05.476Z,-1.5
2023-03-02T06:16:08.021Z,-1.6
2023-03-02T06:26:09.853Z,-1.6
2023-03-02T06:36:12.059Z,-1.5
2023-03-02T06:56:16.869Z,-1.3
2023-03-02T07:06:19.226Z,-1.2
2023-03-02T07:16:21.487Z,-0.3
2023-03-02T07:26:23.668Z,0.4
2023-03-02T07:36:25.525Z,1.1
2023-03-02T07:46:27.486Z,1.5
2023-03-02T07:56:29.556Z,1.9
2023-03-02T08:06:32.193Z,2.5
2023-03-02T08:16:34.030Z,2.9
2023-03-02T08:26:36.019Z,3.5
2023-03-02T08:36:38.306Z,3.6
2023-03-02T08:46:40.474Z,3.2
2023-03-02T08:56:42.731Z,3.4
2023-03-02T09:06:44.691Z,4.1
2023-03-02T09:16:46.952Z,4.8
2023-03-02T09:26:49.427Z,5.3
2023-03-02T09:46:53.875Z,5
2023-03-02T10:06:58.156Z,5.5
2023-03-02T10:17:00.463Z,5.8
2023-03-02T10:27:02.607Z,6.2
2023-03-02T10:37:05.278Z,5.9
2023-03-02T10:47:06.952Z,6.7
2023-03-02T10:57:09.098Z,6.5
2023-03-02T11:07:11.328Z,7.1
2023-03-02T11:17:13.116Z,7.4
2023-03-02T11:27:15.720Z,8.4
2023-03-02T11:37:18.020Z,8
2023-03-02T11:47:19.792Z,7.7
2023-03-02T11:57:21.575Z,9.1
2023-03-02T12:07:24.061Z,8.4
2023-03-02T12:17:25.778Z,9.2
2023-03-02T12:27:28.236Z,8.8
2023-03-02T12:37:30.826Z,9.5
2023-03-02T12:57:34.988Z,8.8
2023-03-02T13:07:37.489Z,9.8
2023-03-02T13:17:39.896Z,9.4
2023-03-02T13:27:42.249Z,9.2
2023-03-02T13:47:46.072Z,9
2023-03-02T13:57:48.699Z,10
2023-03-02T14:07:50.368Z,10.3
2023-03-02T14:17:52.562Z,10.7
2023-03-02T14:27:54.571Z,10.5
2023-03-02T14:37:57.063Z,9.7
2023-03-02T14:47:59.197Z,10.6
2023-03-02T14:58:01.488Z,9.9
2023-03-02T15:08:03.957Z,10.3
2023-03-02T15:28:09.147Z,10.1
2023-03-02T15:38:11.401Z,9.2
2023-03-02T15:48:13.681Z,8.5
2023-03-02T15:58:15.656Z,8.5
2023-03-02T16:08:17.764Z,8.2
2023-03-02T16:18:19.950Z,8.1
2023-03-02T16:28:21.938Z,7.8
2023-03-02T16:38:24.165Z,7.5
2023-03-02T16:48:26.763Z,7.2
2023-03-02T16:58:29.156Z,6.6
2023-03-02T17:08:31.141Z,6.1
2023-03-02T17:18:33.188Z,5.8
2023-03-02T17:28:35.003Z,5.4
2023-03-02T17:38:37.289Z,5.1
2023-03-02T17:48:39.097Z,4.8
2023-03-02T17:58:44.886Z,4.5
2023-03-02T18:18:45.717Z,3.8
2023-03-02T18:28:47.438Z,3.4
2023-03-02T18:38:49.745Z,2.9
2023-03-02T18:48:52.382Z,2.6
2023-03-02T18:58:54.648Z,2.3
2023-03-02T19:08:56.860Z,2
2023-03-02T19:18:59.336Z,1.7
2023-03-02T19:29:01.818Z,1.5
2023-03-02T19:49:06.876Z,1.1
2023-03-02T19:59:08.782Z,1
2023-03-02T20:09:10.669Z,0.9
2023-03-02T20:19:14.336Z,0.9
2023-03-02T20:29:14.960Z,0.9
2023-03-02T20:39:16.883Z,0.9
2023-03-02T20:49:19.304Z,0.8
2023-03-02T20:59:21.556Z,0.7
2023-03-02T21:09:24.224Z,0.7
2023-03-02T21:19:26.182Z,0.7
2023-03-02T21:29:28.950Z,0.7
2023-03-02T21:39:30.899Z,0.7
2023-03-02T21:49:32.864Z,0.7
2023-03-02T21:59:35.359Z,0.7
2023-03-02T22:09:37.573Z,0.7
2023-03-02T22:19:39.558Z,0.7
2023-03-02T22:29:41.574Z,0.7
2023-03-02T22:39:44.012Z,0.7
2023-03-02T22:49:45.790Z,0.7
2023-03-02T22:59:48.311Z,0.8
2023-03-02T23:09:50.492Z,0.7
2023-03-02T23:19:52.995Z,0.7
2023-03-02T23:29:55.695Z,0.8
2023-03-02T23:39:58.213Z,0.7
2023-03-02T23:49:59.834Z,0.6
